To NAV CANADA Home Page Login to a new session Search on AWWS site Feedback and Comments Disclaimer Vers la page française équivalente Tips FAQ What's new on the site To the Forecasts and Observations / NOTAM section To "File a Flight Plan" website Publications and other links Update of the User's profile FIC Telephone Numbers My Weather Data Folder Route Weather Data Regional Weather Data Local Weather Data To the Forecasts and Observations / NOTAM section
Request Generated 04/24/2014 at 18:56:36 UTC . Weather information available at that time is displayed.

METAR/TAF

PANGNIRTUNG/NU    (show WxCam)

METAR CYXP 241800Z 26006KT 15SM SKC M15/M18 A3036 RMK ST TR SLP284=
METAR CYXP 241700Z 26007KT 15SM FEW012 M16/M19 A3037 RMK ST1 SLP287=
SPECI CYXP 241619Z 26008KT 15SM FEW012 M16/M19 A3036 RMK ST1 SLP286=
METAR CYXP 241600Z 25008KT 15SM IC FEW012 M16/M19 A3036 RMK ST1
SLP286=

TAF CYXP 241838Z 2419/2422 26006KT P6SM SKC
RMK NXT FCST WILL BE ISSUED AT 251245Z=
Your time UTC time
Weather data provided by Environment Canada and NAV CANADA